Time;durP1;ratioP1;P1;durP2;ratioP2;P2;SDS_P1;SDS_P2;PMS_P1;PMS_P2;Temp;Humidity;BMP_temperature;BMP_pressure;BME280_temperature;BME280_humidity;BME280_pressure;Samples;Min_cycle;Max_cycle;Signal;HPM_P1;HPM_P2
2022/08/17 00:00:39;;;;;;;89.40;53.72;;;;;;;21.39;100.00;100599.22;5023023;28;20049;-79
2022/08/17 00:03:12;;;;;;;105.07;56.65;;;;;;;21.41;100.00;100589.56;5043058;28;20041;-79
2022/08/17 00:05:55;;;;;;;101.68;55.78;;;;;;;21.45;100.00;100581.69;5022885;28;20480;-79
2022/08/17 00:08:23;;;;;;;91.60;55.17;;;;;;;21.34;100.00;100580.31;5037708;28;20484;-79
2022/08/17 00:10:51;;;;;;;110.95;61.17;;;;;;;21.34;100.00;100582.22;5017688;28;20029;-78
2022/08/17 00:13:28;;;;;;;107.22;58.90;;;;;;;21.34;100.00;100580.31;5021913;28;20057;-78
2022/08/17 00:15:58;;;;;;;111.35;58.10;;;;;;;21.34;100.00;100571.94;5032471;28;20108;-79
2022/08/17 00:18:26;;;;;;;109.82;61.95;;;;;;;21.24;100.00;100563.06;5021362;28;20096;-78
2022/08/17 00:20:53;;;;;;;117.32;62.88;;;;;;;21.22;100.00;100565.19;4989015;28;20034;-78
2022/08/17 00:23:19;;;;;;;112.68;62.80;;;;;;;21.18;100.00;100552.72;5029279;28;20030;-79
2022/08/17 00:25:45;;;;;;;112.63;62.92;;;;;;;21.09;100.00;100558.41;5041375;28;20061;-79
2022/08/17 00:28:13;;;;;;;124.10;65.00;;;;;;;21.06;100.00;100561.59;5001889;28;20098;-78
2022/08/17 00:30:39;;;;;;;124.22;65.53;;;;;;;21.11;100.00;100561.84;5020438;28;20574;-79
2022/08/17 00:33:16;;;;;;;122.65;66.15;;;;;;;20.96;100.00;100552.72;5002328;28;20366;-78
2022/08/17 00:35:43;;;;;;;124.43;65.47;;;;;;;20.97;100.00;100545.22;5035932;28;20044;-78
2022/08/17 00:38:09;;;;;;;121.88;66.60;;;;;;;21.02;100.00;100551.03;5040112;28;20396;-79
2022/08/17 00:40:38;;;;;;;129.30;68.47;;;;;;;21.02;100.00;100551.94;5003592;28;20034;-79
2022/08/17 00:43:28;;;;;;;162.80;69.50;;;;;;;20.97;100.00;100553.56;5033596;28;20127;-78
2022/08/17 00:45:54;;;;;;;145.88;68.30;;;;;;;21.05;100.00;100556.22;5023015;28;20046;-80
2022/08/17 00:48:22;;;;;;;137.55;67.88;;;;;;;21.02;100.00;100560.28;5023937;28;20037;-80
2022/08/17 00:50:57;;;;;;;132.18;70.53;;;;;;;21.11;100.00;100566.56;5036640;28;20022;-79
2022/08/17 00:53:25;;;;;;;143.23;72.10;;;;;;;21.05;100.00;100562.69;5014509;28;20029;-79
2022/08/17 00:55:53;;;;;;;147.70;72.38;;;;;;;21.07;100.00;100554.09;5021065;28;20507;-79
2022/08/17 00:58:19;;;;;;;143.93;74.43;;;;;;;20.96;100.00;100555.50;5002704;28;20105;-78
2022/08/17 01:00:46;;;;;;;148.55;73.93;;;;;;;21.03;100.00;100553.63;5005221;28;20034;-79
2022/08/17 01:03:18;;;;;;;157.60;74.45;;;;;;;20.92;100.00;100552.25;5002976;28;20528;-78
2022/08/17 01:05:47;;;;;;;148.10;74.05;;;;;;;20.94;100.00;100549.28;5037240;28;20022;-79
2022/08/17 01:08:15;;;;;;;149.98;76.45;;;;;;;20.84;100.00;100548.69;5012162;28;20045;-79
2022/08/17 01:10:49;;;;;;;154.93;74.40;;;;;;;20.83;100.00;100541.44;5024538;28;20022;-79
2022/08/17 01:13:16;;;;;;;161.30;75.80;;;;;;;20.90;100.00;100543.22;5018529;28;20041;-78
2022/08/17 01:15:49;;;;;;;161.38;77.82;;;;;;;20.90;100.00;100536.78;5009349;28;20025;-79
2022/08/17 01:18:15;;;;;;;;;;;;;;;20.82;100.00;100539.69;5042758;28;20025;-79
2022/08/17 01:20:48;;;;;;;179.63;78.85;;;;;;;20.72;100.00;100531.66;5008033;28;20040;-79
2022/08/17 01:23:17;;;;;;;174.23;82.20;;;;;;;20.71;100.00;100535.50;5037150;28;20104;-78
2022/08/17 01:25:47;;;;;;;167.60;81.53;;;;;;;20.63;100.00;100521.66;5003841;28;20090;-78
2022/08/17 01:28:14;;;;;;;187.93;85.32;;;;;;;20.66;100.00;100527.75;5001724;28;20037;-79
2022/08/17 01:30:41;;;;;;;194.95;86.07;;;;;;;20.68;100.00;100528.41;5026621;28;20052;-79
2022/08/17 01:33:10;;;;;;;182.65;85.05;;;;;;;20.60;100.00;100519.31;5011936;28;20065;-79
2022/08/17 01:35:37;;;;;;;173.68;82.85;;;;;;;20.60;100.00;100519.31;5027660;28;20373;-78
2022/08/17 01:38:05;;;;;;;186.68;85.90;;;;;;;20.55;100.00;100517.09;5029531;28;20025;-78
2022/08/17 01:40:37;;;;;;;172.70;82.72;;;;;;;20.53;100.00;100520.09;5045419;28;20037;-81
2022/08/17 01:43:15;;;;;;;187.82;86.22;;;;;;;20.47;100.00;100511.66;5029709;28;20520;-79
2022/08/17 01:45:50;;;;;;;192.60;87.72;;;;;;;20.44;100.00;100512.03;5028052;28;20072;-79
2022/08/17 01:48:18;;;;;;;196.95;88.32;;;;;;;20.47;100.00;100518.06;5027778;28;20029;-79
2022/08/17 01:50:46;;;;;;;192.73;88.88;;;;;;;20.39;100.00;100516.25;5040440;28;20029;-79
2022/08/17 01:53:18;;;;;;;199.77;88.63;;;;;;;20.39;100.00;100515.41;5026823;28;20045;-78
2022/08/17 01:55:57;;;;;;;198.85;91.07;;;;;;;20.31;100.00;100512.72;5028678;28;20576;-80
2022/08/17 01:58:27;;;;;;;196.98;88.80;;;;;;;20.35;100.00;100500.19;5043526;28;20476;-79
2022/08/17 02:00:58;;;;;;;202.13;87.88;;;;;;;20.32;100.00;100517.25;5045447;28;20037;-78
2022/08/17 02:03:24;;;;;;;191.77;89.18;;;;;;;20.31;100.00;100510.81;5025568;28;20030;-78
2022/08/17 02:05:52;;;;;;;199.85;90.72;;;;;;;20.24;100.00;100514.56;5039428;28;20046;-79
2022/08/17 02:08:19;;;;;;;211.63;93.13;;;;;;;20.24;100.00;100521.00;5019629;28;20048;-79
2022/08/17 02:10:48;;;;;;;199.02;87.22;;;;;;;20.23;100.00;100510.91;5024688;28;20033;-78
2022/08/17 02:13:15;;;;;;;214.95;90.70;;;;;;;20.17;100.00;100514.50;5036828;28;20033;-78
2022/08/17 02:15:41;;;;;;;189.70;90.57;;;;;;;20.26;100.00;100507.75;5043779;28;20071;-78
2022/08/17 02:18:09;;;;;;;196.43;89.22;;;;;;;20.28;100.00;100507.56;5025107;28;20033;-80
2022/08/17 02:20:39;;;;;;;220.43;91.72;;;;;;;20.26;100.00;100504.13;5022557;28;20037;-80
2022/08/17 02:23:09;;;;;;;198.77;89.40;;;;;;;20.16;100.00;100501.63;5024240;28;20030;-78
2022/08/17 02:25:37;;;;;;;212.52;93.40;;;;;;;20.06;100.00;100501.06;5027896;28;20107;-80
2022/08/17 02:28:06;;;;;;;208.25;92.45;;;;;;;20.04;100.00;100495.72;5025363;28;20044;-79
2022/08/17 02:30:32;;;;;;;212.55;90.82;;;;;;;20.00;100.00;100486.00;5023250;28;20485;-79
2022/08/17 02:32:58;;;;;;;201.75;89.63;;;;;;;19.97;100.00;100490.06;5022148;28;20514;-79
2022/08/17 02:35:24;;;;;;;207.52;90.82;;;;;;;20.07;100.00;100495.31;5027921;28;20056;-79
2022/08/17 02:37:51;;;;;;;208.38;92.00;;;;;;;19.97;100.00;100489.19;5025506;28;20116;-79
2022/08/17 02:40:16;;;;;;;212.65;92.40;;;;;;;19.92;100.00;100478.66;5008622;28;20053;-79
2022/08/17 02:42:43;;;;;;;220.48;92.85;;;;;;;19.97;100.00;100486.41;5021626;28;20026;-77
2022/08/17 02:45:15;;;;;;;209.00;91.45;;;;;;;20.06;100.00;100489.97;5023284;28;20042;-78
2022/08/17 02:47:43;;;;;;;201.13;90.90;;;;;;;19.98;100.00;100483.44;5023973;28;20037;-79
2022/08/17 02:50:14;;;;;;;215.88;90.65;;;;;;;20.13;100.00;100490.91;5024124;28;20481;-80
2022/08/17 02:52:43;;;;;;;187.52;84.55;;;;;;;20.17;100.00;100489.47;5020299;28;20401;-79
2022/08/17 02:55:30;;;;;;;192.85;86.68;;;;;;;20.10;100.00;100483.81;4991891;28;20472;-79
2022/08/17 02:57:56;;;;;;;211.02;89.95;;;;;;;20.16;100.00;100490.50;5021122;28;20049;-80
2022/08/17 03:00:27;;;;;;;191.75;85.55;;;;;;;20.13;100.00;100488.13;5008541;28;20033;-79
2022/08/17 03:02:56;;;;;;;198.35;86.53;;;;;;;20.13;100.00;100480.63;5024676;28;20036;-79
2022/08/17 03:05:25;;;;;;;186.65;83.32;;;;;;;20.18;100.00;100491.19;4999100;28;20118;-80
2022/08/17 03:07:51;;;;;;;199.10;86.90;;;;;;;20.06;100.00;100487.19;5020043;28;20477;-79
2022/08/17 03:10:20;;;;;;;182.65;82.38;;;;;;;20.10;100.00;100482.94;5040103;28;20029;-81
2022/08/17 03:12:46;;;;;;;188.82;85.82;;;;;;;20.03;100.00;100480.06;5008216;28;20041;-79
2022/08/17 03:15:22;;;;;;;175.38;80.90;;;;;;;20.13;100.00;100483.41;5024092;28;20533;-78
2022/08/17 03:17:48;;;;;;;192.40;84.80;;;;;;;20.11;100.00;100470.78;5042289;28;20037;-81
2022/08/17 03:20:17;;;;;;;189.50;83.53;;;;;;;20.00;100.00;100470.22;4993028;28;20041;-79
2022/08/17 03:22:50;;;;;;;189.48;83.43;;;;;;;20.08;100.00;100471.16;5004992;28;20029;-79
2022/08/17 03:25:20;;;;;;;200.07;80.90;;;;;;;20.09;100.00;100476.53;5042647;28;20033;-80
2022/08/17 03:27:48;;;;;;;182.45;78.15;;;;;;;20.08;100.00;100476.72;5023025;28;20037;-78
2022/08/17 03:30:13;;;;;;;184.25;81.05;;;;;;;20.08;100.00;100477.56;5021881;28;20045;-79
2022/08/17 03:32:46;;;;;;;181.23;77.90;;;;;;;20.10;100.00;100472.72;5016980;28;20072;-79
2022/08/17 03:35:19;;;;;;;182.00;81.10;;;;;;;19.95;100.00;100461.56;5022367;28;20029;-79
2022/08/17 03:37:48;;;;;;;163.45;78.57;;;;;;;20.00;100.00;100475.78;4997457;28;20473;-79
2022/08/17 03:40:16;;;;;;;152.20;73.65;;;;;;;20.04;100.00;100473.47;4999838;28;20048;-80
2022/08/17 03:42:43;;;;;;;178.35;77.30;;;;;;;19.94;100.00;100475.66;4997655;28;20033;-79
2022/08/17 03:45:15;;;;;;;163.68;78.47;;;;;;;19.90;100.00;100477.97;4998966;28;20562;-78
2022/08/17 03:58:48;;;;;;;161.23;74.25;;;;;;;19.84;100.00;100478.75;5004694;28;20076;-79
2022/08/17 04:01:16;;;;;;;141.52;70.13;;;;;;;19.86;100.00;100484.09;5015989;28;20026;-79
2022/08/17 04:03:42;;;;;;;171.43;74.50;;;;;;;19.77;100.00;100478.63;5005068;28;20034;-79
2022/08/17 04:06:08;;;;;;;158.52;70.32;;;;;;;19.86;100.00;100479.41;5035976;28;20554;-79
2022/08/17 04:08:34;;;;;;;147.82;70.28;;;;;;;19.85;100.00;100477.69;5019655;28;20034;-80
2022/08/17 04:11:00;;;;;;;142.95;70.82;;;;;;;19.81;100.00;100490.25;5032915;28;20034;-78
2022/08/17 04:13:27;;;;;;;144.15;72.50;;;;;;;19.79;100.00;100484.88;5036153;28;20048;-78
2022/08/17 04:15:55;;;;;;;135.70;68.57;;;;;;;19.85;100.00;100483.25;5036312;28;20056;-78
2022/08/17 04:18:20;;;;;;;132.32;69.38;;;;;;;19.81;100.00;100490.25;5040208;28;20045;-80
2022/08/17 04:20:46;;;;;;;142.10;68.63;;;;;;;19.85;100.00;100491.56;5002954;28;20057;-78
2022/08/17 04:23:15;;;;;;;127.07;66.60;;;;;;;19.89;100.00;100484.59;5020388;28;20080;-79
2022/08/17 04:25:50;;;;;;;133.45;66.20;;;;;;;20.00;100.00;100492.47;5019501;28;20045;-78
2022/08/17 04:28:18;;;;;;;119.83;65.20;;;;;;;20.06;100.00;100492.72;5007179;28;20029;-81
2022/08/17 04:30:46;;;;;;;114.00;63.00;;;;;;;19.89;100.00;100490.16;5013544;28;20025;-79
2022/08/17 04:33:22;;;;;;;125.72;62.22;;;;;;;19.98;100.00;100491.75;5036887;28;20033;-79
2022/08/17 04:35:54;;;;;;;115.82;61.80;;;;;;;19.88;100.00;100491.19;5021693;28;20466;-77
2022/08/17 04:38:23;;;;;;;111.97;60.00;;;;;;;19.97;100.00;100495.63;5017479;28;20031;-77
2022/08/17 04:43:39;;;;;;;113.55;61.25;;;;;;;19.94;100.00;100495.13;5009669;28;20389;-78
2022/08/17 04:46:11;;;;;;;106.78;59.00;;;;;;;19.95;100.00;100507.97;5015501;28;20068;-77
2022/08/17 04:48:41;;;;;;;108.38;60.35;;;;;;;20.02;100.00;100514.47;5035428;28;20059;-77
2022/08/17 04:51:16;;;;;;;100.50;56.90;;;;;;;19.99;100.00;100534.34;5001876;28;20045;-77
2022/08/17 04:53:44;;;;;;;102.70;55.42;;;;;;;20.08;100.00;100552.63;5019756;28;20068;-77
2022/08/17 04:56:12;;;;;;;92.38;54.08;;;;;;;20.18;100.00;100521.75;5020092;28;20469;-78
2022/08/17 04:58:37;;;;;;;96.53;53.22;;;;;;;20.31;100.00;100552.50;4999723;28;20132;-77
2022/08/17 05:01:08;;;;;;;85.35;48.38;;;;;;;20.32;100.00;100545.91;4996213;28;20042;-78
2022/08/17 05:03:34;;;;;;;92.22;50.55;;;;;;;20.44;100.00;100537.94;5001968;28;20107;-77
2022/08/17 05:06:00;;;;;;;96.57;50.92;;;;;;;20.36;100.00;100588.09;5016731;28;20071;-78
2022/08/17 05:08:25;;;;;;;85.30;49.92;;;;;;;20.47;100.00;100567.28;5033069;28;20112;-78
2022/08/17 05:10:51;;;;;;;83.43;47.83;;;;;;;20.57;100.00;100587.31;5000546;28;20128;-77
2022/08/17 05:13:20;;;;;;;76.90;47.83;;;;;;;20.54;100.00;100576.56;5035058;28;20485;-78
2022/08/17 05:15:49;;;;;;;84.53;47.53;;;;;;;20.48;100.00;100596.81;5018610;28;20053;-77
2022/08/17 05:18:17;;;;;;;73.55;47.10;;;;;;;20.49;100.00;100573.50;5003174;28;20033;-77
2022/08/17 05:20:44;;;;;;;83.03;47.17;;;;;;;20.43;100.00;100588.19;5016573;28;20407;-78
2022/08/17 05:23:13;;;;;;;81.25;47.15;;;;;;;20.51;100.00;100583.41;4998207;28;20029;-79
2022/08/17 05:25:42;;;;;;;81.80;47.65;;;;;;;20.59;100.00;100578.78;5019118;28;20026;-78
2022/08/17 05:28:10;;;;;;;77.60;48.60;;;;;;;20.51;100.00;100569.50;5014326;28;20042;-79
2022/08/17 05:30:41;;;;;;;87.63;48.55;;;;;;;20.45;100.00;100552.72;5001263;28;20037;-78
2022/08/17 05:33:11;;;;;;;74.70;46.60;;;;;;;20.45;100.00;100558.28;4992840;28;20040;-77
2022/08/17 05:35:41;;;;;;;75.30;48.00;;;;;;;20.47;100.00;100562.56;5030001;28;20099;-77
2022/08/17 05:38:08;;;;;;;78.85;47.25;;;;;;;20.38;100.00;100566.50;5021574;28;20039;-78
2022/08/17 05:40:35;;;;;;;79.53;48.60;;;;;;;20.43;100.00;100558.47;5005087;28;20029;-78
2022/08/17 05:43:12;;;;;;;80.57;49.95;;;;;;;20.37;100.00;100554.53;5017847;28;20045;-77
2022/08/17 05:45:44;;;;;;;86.47;51.03;;;;;;;20.29;100.00;100564.91;5015915;28;20459;-79
2022/08/17 05:48:14;;;;;;;83.30;50.65;;;;;;;20.26;100.00;100568.06;5002515;28;20026;-77
2022/08/17 05:51:12;;;;;;;83.43;53.42;;;;;;;20.25;100.00;100563.56;5021787;28;20048;-78
2022/08/17 05:53:48;;;;;;;81.15;52.28;;;;;;;20.30;100.00;100561.06;4996514;28;20048;-78
2022/08/17 05:56:42;;;;;;;83.35;53.03;;;;;;;20.17;100.00;100556.19;5014422;28;20408;-78
2022/08/17 05:59:23;;;;;;;82.82;55.28;;;;;;;20.10;100.00;100558.00;5023798;28;20033;-78
2022/08/17 06:01:49;;;;;;;98.22;57.30;;;;;;;20.09;100.00;100559.91;5015089;28;20036;-78
2022/08/17 06:04:48;;;;;;;89.20;56.20;;;;;;;20.29;100.00;100562.97;5040727;28;20053;-79
2022/08/17 06:07:27;;;;;;;84.43;55.72;;;;;;;20.36;100.00;100551.94;5020336;28;20034;-79
2022/08/17 06:10:19;;;;;;;91.60;54.20;;;;;;;20.51;100.00;100565.81;5037260;28;20036;-77
2022/08/17 06:13:11;;;;;;;96.55;56.33;;;;;;;20.60;100.00;100569.38;5035786;28;20140;-78
2022/08/17 06:16:01;;;;;;;84.45;54.17;;;;;;;20.71;100.00;100563.31;5020837;28;20491;-78
2022/08/17 06:18:35;;;;;;;86.57;55.42;;;;;;;20.70;100.00;100561.63;5000043;28;20104;-77
2022/08/17 06:21:05;;;;;;;86.55;55.05;;;;;;;20.77;100.00;100564.47;5019958;28;20033;-78
2022/08/17 06:23:38;;;;;;;82.55;56.80;;;;;;;20.86;100.00;100582.78;5021563;28;20469;-79
2022/08/17 06:26:13;;;;;;;86.53;55.40;;;;;;;20.72;100.00;100577.03;5017506;28;20030;-79
2022/08/17 06:29:25;;;;;;;97.88;56.05;;;;;;;20.76;100.00;100585.88;5022691;28;20415;-78
2022/08/17 06:31:54;;;;;;;87.72;53.83;;;;;;;20.68;100.00;100603.53;4975236;28;20441;-78
2022/08/17 06:34:21;;;;;;;89.70;54.67;;;;;;;20.75;100.00;100584.16;5024588;28;20077;-80
2022/08/17 06:37:21;;;;;;;83.38;56.78;;;;;;;20.74;100.00;100582.41;5006485;28;20030;-79
2022/08/17 06:40:19;;;;;;;78.13;53.60;;;;;;;20.84;100.00;100576.53;5024848;28;20088;-79
2022/08/17 06:43:23;;;;;;;82.57;54.13;;;;;;;20.87;100.00;100588.16;4998981;28;20044;-81
2022/08/17 06:45:56;;;;;;;78.32;55.17;;;;;;;20.86;100.00;100591.16;5014174;28;20122;-80
2022/08/17 06:48:45;;;;;;;83.28;53.88;;;;;;;20.88;100.00;100587.09;5013683;28;20061;-80
2022/08/17 06:51:17;;;;;;;87.55;54.13;;;;;;;20.91;100.00;100595.03;5014592;28;20036;-82
2022/08/17 06:54:04;;;;;;;85.13;56.00;;;;;;;20.90;100.00;100592.47;5019759;28;20391;-82
2022/08/17 06:56:31;;;;;;;84.75;54.85;;;;;;;21.06;100.00;100592.22;5016155;28;20422;-82
2022/08/17 06:58:58;;;;;;;84.18;56.17;;;;;;;21.03;100.00;100595.38;5016599;28;20398;-82
2022/08/17 07:01:33;;;;;;;86.68;54.70;;;;;;;21.13;100.00;100595.06;5016997;28;20036;-83
2022/08/17 07:04:05;;;;;;;94.55;58.60;;;;;;;21.08;100.00;100590.09;5000575;28;20482;-82
2022/08/17 07:06:39;;;;;;;84.70;56.97;;;;;;;21.15;100.00;100595.72;5017935;28;20065;-84
2022/08/17 07:09:14;;;;;;;89.38;54.45;;;;;;;21.20;100.00;100603.50;5001779;28;20034;-82
2022/08/17 07:11:53;;;;;;;85.90;55.80;;;;;;;21.13;100.00;100599.78;4985692;28;20038;-82
2022/08/17 07:14:41;;;;;;;81.88;56.65;;;;;;;21.26;100.00;100605.50;5000924;28;20474;-82
2022/08/17 07:17:10;;;;;;;97.45;59.80;;;;;;;21.28;100.00;100604.25;5000854;28;20026;-83
2022/08/17 07:19:40;;;;;;;82.32;59.53;;;;;;;21.06;100.00;100608.91;5002110;28;20034;-82
2022/08/17 07:22:24;;;;;;;87.32;60.47;;;;;;;21.07;100.00;100612.56;5020570;28;20062;-82
2022/08/17 07:24:58;;;;;;;88.13;58.72;;;;;;;21.25;100.00;100610.22;5021073;28;20537;-83
2022/08/17 07:27:29;;;;;;;88.75;59.58;;;;;;;21.22;100.00;100609.75;5022843;28;20026;-81
2022/08/17 07:30:15;;;;;;;98.50;60.22;;;;;;;21.39;100.00;100619.56;5005573;28;20034;-83
2022/08/17 07:32:46;;;;;;;95.68;61.60;;;;;;;21.31;100.00;100622.47;5001442;28;20371;-82
2022/08/17 07:35:29;;;;;;;86.93;59.95;;;;;;;21.35;100.00;100632.16;5002870;28;20038;-80
2022/08/17 07:38:15;;;;;;;97.68;58.83;;;;;;;21.48;100.00;100634.28;5002472;28;20045;-82
2022/08/17 07:41:00;;;;;;;94.20;62.83;;;;;;;21.49;100.00;100638.75;5001357;28;20034;-82
2022/08/17 07:43:35;;;;;;;93.82;64.60;;;;;;;21.38;100.00;100640.13;4991664;28;20177;-83
2022/08/17 07:48:52;;;;;;;102.32;65.82;;;;;;;21.34;100.00;100647.16;5018552;28;20030;-82
2022/08/17 07:51:25;;;;;;;94.65;60.08;;;;;;;21.35;100.00;100653.56;5020529;28;20033;-83
2022/08/17 07:53:59;;;;;;;101.72;62.38;;;;;;;21.33;100.00;100648.19;5004730;28;20034;-82
2022/08/17 07:56:47;;;;;;;96.28;62.90;;;;;;;21.28;100.00;100643.25;5021017;28;20025;-82
2022/08/17 07:59:31;;;;;;;95.75;66.70;;;;;;;21.32;100.00;100637.25;5020390;28;20438;-82
2022/08/17 08:01:57;;;;;;;110.50;69.60;;;;;;;21.24;100.00;100641.91;5020100;28;20022;-82
2022/08/17 08:04:41;;;;;;;109.55;70.85;;;;;;;21.28;100.00;100642.34;5020384;28;20034;-82
2022/08/17 08:07:20;;;;;;;102.85;68.75;;;;;;;21.29;100.00;100642.16;5004007;28;20034;-82
2022/08/17 08:09:57;;;;;;;98.63;68.95;;;;;;;21.28;100.00;100642.34;5004393;28;20034;-83
2022/08/17 08:12:34;;;;;;;106.10;69.80;;;;;;;21.38;100.00;100630.91;5020584;28;20469;-83
2022/08/17 08:15:22;;;;;;;97.72;66.05;;;;;;;21.50;100.00;100628.47;5020237;28;20033;-82
2022/08/17 08:17:54;;;;;;;98.88;64.43;;;;;;;21.65;100.00;100627.34;5020087;28;20481;-82
2022/08/17 08:20:42;;;;;;;96.03;65.78;;;;;;;21.83;100.00;100629.66;5008608;28;20030;-82
2022/08/17 08:23:33;;;;;;;97.18;63.28;;;;;;;21.94;100.00;100632.94;5024211;28;20049;-82
2022/08/17 08:26:32;;;;;;;101.00;63.35;;;;;;;22.16;100.00;100630.97;5024546;28;20041;-82
2022/08/17 08:29:18;;;;;;;84.80;58.90;;;;;;;22.18;100.00;100632.47;5024286;28;20085;-81
2022/08/17 08:31:57;;;;;;;90.97;61.13;;;;;;;22.23;100.00;100628.25;5026071;28;20034;-82
2022/08/17 08:35:03;;;;;;;82.55;56.63;;;;;;;22.40;100.00;100635.25;5005752;28;20035;-83
2022/08/17 08:37:40;;;;;;;77.95;55.10;;;;;;;22.58;100.00;100637.53;5004756;28;20033;-83
2022/08/17 08:40:32;;;;;;;82.32;54.58;;;;;;;22.96;100.00;100637.03;5006311;28;20113;-82
2022/08/17 08:42:58;;;;;;;;;;;;;;;23.05;100.00;100640.50;4989029;28;20065;-83
2022/08/17 08:45:47;;;;;;;75.80;51.85;;;;;;;23.32;100.00;100649.88;5004729;28;20393;-82
2022/08/17 08:48:36;;;;;;;73.00;50.03;;;;;;;23.86;100.00;100653.66;5016493;28;20451;-83
2022/08/17 08:51:15;;;;;;;66.63;46.95;;;;;;;24.06;100.00;100655.59;4988479;28;20033;-83
2022/08/17 08:54:04;;;;;;;60.72;45.67;;;;;;;24.13;100.00;100656.44;4988682;28;20064;-82
2022/08/17 08:56:41;;;;;;;73.85;46.88;;;;;;;24.32;100.00;100658.38;5003668;28;20022;-83
2022/08/17 08:59:33;;;;;;;69.85;47.85;;;;;;;24.11;100.00;100656.66;5004722;28;20389;-82
2022/08/17 09:02:03;;;;;;;73.82;48.67;;;;;;;24.48;100.00;100653.38;5020625;28;20026;-81
2022/08/17 09:04:34;;;;;;;;;;;;;;;24.59;100.00;100652.75;5024116;28;20117;-85
2022/08/17 09:07:11;;;;;;;71.03;48.58;;;;;;;24.33;100.00;100657.25;5023755;28;20361;-83
2022/08/17 09:09:41;;;;;;;71.57;46.88;;;;;;;24.04;100.00;100651.06;5023052;28;20026;-83
2022/08/17 09:12:24;;;;;;;67.85;49.63;;;;;;;24.13;100.00;100646.09;5013576;28;20035;-83
2022/08/17 09:14:53;;;;;;;75.35;51.72;;;;;;;24.05;100.00;100649.13;5003456;28;20030;-82
2022/08/17 09:17:35;;;;;;;80.72;54.30;;;;;;;23.93;100.00;100659.25;5019259;28;20120;-83
2022/08/17 09:20:28;;;;;;;75.85;52.35;;;;;;;23.94;100.00;100667.44;5023199;28;20029;-83
2022/08/17 09:23:13;;;;;;;78.55;49.22;;;;;;;23.93;100.00;100674.09;5023873;28;20389;-82
2022/08/17 09:25:48;;;;;;;78.38;51.45;;;;;;;23.60;100.00;100688.00;5023142;28;20029;-83
2022/08/17 09:28:24;;;;;;;73.38;49.28;;;;;;;23.73;100.00;100698.34;5021234;28;20046;-83
2022/08/17 09:31:01;;;;;;;79.10;49.65;;;;;;;23.62;100.00;100711.00;4988318;28;20026;-81
2022/08/17 09:33:28;;;;;;;73.93;48.95;;;;;;;23.49;100.00;100714.63;4990088;28;20065;-82
2022/08/17 09:36:14;;;;;;;80.63;49.80;;;;;;;23.33;100.00;100723.38;5004361;28;20034;-83
2022/08/17 09:38:52;;;;;;;72.22;49.08;;;;;;;23.33;100.00;100734.56;5025780;28;20029;-82
2022/08/17 09:41:39;;;;;;;72.32;47.35;;;;;;;23.40;100.00;100732.63;5005170;28;21683;-82
2022/08/17 09:44:26;;;;;;;84.10;51.63;;;;;;;23.29;100.00;100728.53;5006427;28;20038;-82
2022/08/17 09:47:29;;;;;;;88.65;51.80;;;;;;;23.16;100.00;100734.06;5022989;28;20053;-83
2022/08/17 09:50:14;;;;;;;77.18;51.47;;;;;;;23.28;100.00;100737.97;5005635;28;20362;-82
2022/08/17 09:52:42;;;;;;;86.30;51.08;;;;;;;23.16;100.00;100734.91;5006327;28;20489;-82
2022/08/17 09:55:12;;;;;;;85.13;52.00;;;;;;;23.22;100.00;100733.22;5023207;28;20454;-82
2022/08/17 09:58:03;;;;;;;86.80;54.20;;;;;;;22.92;100.00;100734.34;5006636;28;20029;-83
2022/08/17 10:00:44;;;;;;;90.70;54.73;;;;;;;22.74;100.00;100729.28;5017406;28;20062;-82
2022/08/17 10:03:26;;;;;;;88.60;56.70;;;;;;;23.02;100.00;100724.72;5022131;28;20029;-82
2022/08/17 10:06:08;;;;;;;99.00;56.65;;;;;;;22.82;100.00;100721.81;5022854;28;20440;-81
2022/08/17 10:09:01;;;;;;;92.07;58.17;;;;;;;22.77;100.00;100714.03;5022817;28;20029;-83
2022/08/17 10:15:05;;;;;;;86.43;57.20;;;;;;;22.68;100.00;100737.63;5021572;28;20402;-84
2022/08/17 10:18:02;;;;;;;85.57;54.83;;;;;;;22.49;100.00;100737.25;5021648;28;20032;-84
2022/08/17 10:20:48;;;;;;;77.82;53.47;;;;;;;22.32;100.00;100725.53;5007250;28;20038;-82
2022/08/17 10:26:17;;;;;;;78.82;53.22;;;;;;;22.32;100.00;100724.69;5022853;28;20030;-81
2022/08/17 10:29:14;;;;;;;85.20;56.28;;;;;;;22.34;100.00;100703.03;5021711;28;20037;-82
2022/08/17 10:31:59;;;;;;;;;;;;;;;22.27;100.00;100714.09;5021632;28;20125;-81
2022/08/17 10:34:28;;;;;;;78.40;53.22;;;;;;;22.20;100.00;100704.81;5022083;28;19913;-82
2022/08/17 10:37:05;;;;;;;88.35;56.95;;;;;;;22.21;100.00;100704.59;5022902;28;20049;-82
2022/08/17 10:40:09;;;;;;;76.93;54.40;;;;;;;22.02;100.00;100697.81;5020996;28;20026;-81
2022/08/17 10:42:50;;;;;;;82.53;55.53;;;;;;;21.97;100.00;100700.34;5019972;28;20504;-81
2022/08/17 10:45:24;;;;;;;86.28;53.25;;;;;;;21.94;100.00;100705.44;5021217;28;20046;-82
2022/08/17 10:48:02;;;;;;;80.60;57.38;;;;;;;21.91;100.00;100708.66;5013405;28;20030;-82
2022/08/17 10:50:49;;;;;;;78.82;54.42;;;;;;;21.85;100.00;100715.88;4985682;28;20087;-81
2022/08/17 10:53:33;;;;;;;77.20;52.72;;;;;;;21.87;100.00;100715.66;5019365;28;20034;-83
2022/08/17 10:56:17;;;;;;;76.88;51.72;;;;;;;21.83;100.00;100715.22;5023367;28;20061;-82
2022/08/17 10:59:00;;;;;;;71.82;48.35;;;;;;;21.72;100.00;100713.81;5023678;28;20092;-82
2022/08/17 11:01:46;;;;;;;75.30;52.50;;;;;;;21.81;100.00;100720.97;5026155;28;20038;-82
2022/08/17 11:04:20;;;;;;;68.50;49.70;;;;;;;21.67;100.00;100719.97;5009818;28;20089;-82
2022/08/17 11:07:15;;;;;;;68.18;46.95;;;;;;;21.57;100.00;100724.16;5024258;28;20060;-81
2022/08/17 11:10:18;;;;;;;66.03;48.45;;;;;;;21.69;100.00;100730.06;5024713;28;20413;-82
2022/08/17 11:13:02;;;;;;;63.42;44.53;;;;;;;21.59;100.00;100722.03;5024613;28;20081;-81
2022/08/17 11:15:40;;;;;;;64.78;44.83;;;;;;;21.72;100.00;100735.25;5023021;28;20022;-81
2022/08/17 11:18:16;;;;;;;76.57;49.47;;;;;;;21.73;100.00;100735.03;5024718;28;20516;-82
2022/08/17 11:21:16;;;;;;;65.03;46.83;;;;;;;21.88;100.00;100739.72;5024417;28;20112;-82
2022/08/17 11:24:06;;;;;;;64.40;46.10;;;;;;;21.86;100.00;100734.31;5024228;28;20123;-81
2022/08/17 11:26:35;;;;;;;64.47;47.33;;;;;;;21.91;100.00;100736.53;5023386;28;20029;-82
2022/08/17 11:29:14;;;;;;;69.43;48.58;;;;;;;21.87;100.00;100741.59;5021851;28;20029;-82
2022/08/17 11:31:45;;;;;;;68.47;46.30;;;;;;;21.78;100.00;100743.66;5025277;28;20065;-82
2022/08/17 11:34:17;;;;;;;62.03;44.42;;;;;;;21.53;100.00;100762.69;5023935;28;20374;-81
2022/08/17 11:37:00;;;;;;;60.22;46.53;;;;;;;21.60;100.00;100777.56;5023938;28;20048;-80
2022/08/17 11:39:53;;;;;;;63.75;46.65;;;;;;;21.39;100.00;100780.25;5025499;28;20037;-80
2022/08/17 11:42:53;;;;;;;67.25;46.30;;;;;;;21.45;100.00;100779.50;5008339;28;20042;-81
2022/08/17 11:45:52;;;;;;;71.50;50.60;;;;;;;21.49;100.00;100775.28;5008197;28;20073;-81
2022/08/17 11:51:33;;;;;;;71.50;51.13;;;;;;;21.50;100.00;100776.13;5025631;28;20040;-81
2022/08/17 11:54:43;;;;;;;69.20;50.13;;;;;;;21.38;100.00;100781.31;5006772;28;20026;-80
2022/08/17 11:57:25;;;;;;;75.25;52.10;;;;;;;21.71;100.00;100784.56;5023279;28;20038;-80
2022/08/17 11:59:59;;;;;;;71.78;52.83;;;;;;;21.79;100.00;100789.13;5024850;28;20036;-82
2022/08/17 12:02:33;;;;;;;74.38;51.88;;;;;;;21.82;100.00;100784.03;5007313;28;20121;-81